C2017 KFMH-KFMH
Flight info
| Callsign | C2017 |
|---|---|
| Flight time | N/A |
| Altitude | 7500 |
| Route | VFR |
| Aircraft | C30J/L-VGD/C |
Departure
| Time | 2026-04-23 23:27 |
|---|---|
| Airport | Cape Cod Coast Guard Air Station (KFMH) |
Arrival
| Time | N/A |
|---|---|
| Airport | Cape Cod Coast Guard Air Station (KFMH) |
| Time | Latitude | Longitude | Altitude | Speed | Heading |
|---|---|---|---|---|---|
| 2026-04-23 23:18 | 41.66417 | -70.51985 | 132 ft | 0 kts | 355° |
| 2026-04-23 23:23 | 41.66427 | -70.51986 | 132 ft | 5 kts | 351° |
| 2026-04-23 23:23 | 41.66448 | -70.52037 | 133 ft | 10 kts | 267° |
| 2026-04-23 23:23 | 41.66440 | -70.52170 | 133 ft | 18 kts | 264° |
| 2026-04-23 23:24 | 41.66425 | -70.52361 | 131 ft | 23 kts | 265° |
| 2026-04-23 23:24 | 41.66411 | -70.52584 | 128 ft | 22 kts | 263° |
| 2026-04-23 23:24 | 41.66393 | -70.52747 | 123 ft | 17 kts | 255° |
| 2026-04-23 23:24 | 41.66359 | -70.52896 | 124 ft | 14 kts | 252° |
| 2026-04-23 23:25 | 41.66354 | -70.52918 | 128 ft | 0 kts | 252° |
| 2026-04-23 23:26 | 41.66320 | -70.53029 | 128 ft | 5 kts | 229° |
| 2026-04-23 23:26 | 41.66290 | -70.53029 | 130 ft | 5 kts | 143° |
| 2026-04-23 23:26 | 41.66194 | -70.52862 | 127 ft | 49 kts | 127° |
| 2026-04-23 23:26 | 41.65852 | -70.52276 | 128 ft | 121 kts | 128° |
| 2026-04-23 23:27 | 41.65257 | -70.51244 | 631 ft | 152 kts | 125° |
| 2026-04-23 23:27 | 41.64682 | -70.50033 | 1586 ft | 156 kts | 102° |
| 2026-04-23 23:27 | 41.64783 | -70.48749 | 2573 ft | 147 kts | 56° |
| 2026-04-23 23:27 | 41.65563 | -70.47799 | 3189 ft | 169 kts | 17° |
| 2026-04-23 23:28 | 41.66803 | -70.47552 | 3677 ft | 191 kts | 355° |
| 2026-04-23 23:28 | 41.68189 | -70.47584 | 4273 ft | 209 kts | 354° |
| 2026-04-23 23:28 | 41.69633 | -70.47653 | 5224 ft | 205 kts | 352° |
| 2026-04-23 23:28 | 41.71086 | -70.47748 | 6012 ft | 215 kts | 351° |
| 2026-04-23 23:29 | 41.72616 | -70.47808 | 6650 ft | 225 kts | 353° |
| 2026-04-23 23:29 | 41.74232 | -70.47793 | 7127 ft | 239 kts | 354° |
| 2026-04-23 23:29 | 41.75925 | -70.47770 | 7649 ft | 246 kts | 354° |
| 2026-04-23 23:29 | 41.77645 | -70.47761 | 8236 ft | 249 kts | 353° |
| 2026-04-23 23:30 | 41.79386 | -70.47763 | 8828 ft | 251 kts | 353° |
| 2026-04-23 23:30 | 41.81128 | -70.47773 | 9458 ft | 251 kts | 352° |
| 2026-04-23 23:30 | 41.82882 | -70.47789 | 10064 ft | 252 kts | 352° |
| 2026-04-23 23:30 | 41.84631 | -70.47807 | 10678 ft | 250 kts | 352° |
| 2026-04-23 23:31 | 41.86359 | -70.47826 | 11291 ft | 248 kts | 352° |
| 2026-04-23 23:31 | 41.88076 | -70.47848 | 11895 ft | 246 kts | 351° |
| 2026-04-23 23:31 | 41.89791 | -70.47872 | 12324 ft | 249 kts | 351° |
| 2026-04-23 23:31 | 41.91566 | -70.47901 | 12424 ft | 261 kts | 351° |
| 2026-04-23 23:32 | 41.93415 | -70.47928 | 12416 ft | 271 kts | 352° |
| 2026-04-23 23:32 | 41.95325 | -70.47953 | 12419 ft | 278 kts | 352° |
| 2026-04-23 23:32 | 41.97286 | -70.47978 | 12417 ft | 283 kts | 352° |
| 2026-04-23 23:32 | 41.99271 | -70.48003 | 12416 ft | 286 kts | 352° |
| 2026-04-23 23:33 | 42.01265 | -70.48029 | 12416 ft | 288 kts | 352° |
| 2026-04-23 23:33 | 42.03272 | -70.48055 | 12418 ft | 289 kts | 352° |
| 2026-04-23 23:33 | 42.05286 | -70.48082 | 12419 ft | 290 kts | 352° |
| 2026-04-23 23:33 | 42.07306 | -70.48109 | 12419 ft | 290 kts | 353° |
| 2026-04-23 23:34 | 42.09330 | -70.48137 | 12419 ft | 291 kts | 353° |
| 2026-04-23 23:34 | 42.11352 | -70.48164 | 12419 ft | 291 kts | 353° |
| 2026-04-23 23:34 | 42.13377 | -70.48192 | 12425 ft | 291 kts | 353° |
| 2026-04-23 23:34 | 42.15397 | -70.48220 | 12505 ft | 290 kts | 353° |
| 2026-04-23 23:35 | 42.17413 | -70.48248 | 12502 ft | 291 kts | 353° |
| 2026-04-23 23:35 | 42.19435 | -70.48276 | 12489 ft | 291 kts | 353° |
| 2026-04-23 23:35 | 42.21348 | -70.48302 | 12489 ft | 292 kts | 353° |
| 2026-04-23 23:35 | 42.23380 | -70.48330 | 12490 ft | 292 kts | 353° |
| 2026-04-23 23:36 | 42.25298 | -70.48348 | 12477 ft | 261 kts | 352° |
| 2026-04-23 23:36 | 42.27077 | -70.48371 | 11969 ft | 253 kts | 352° |
| 2026-04-23 23:36 | 42.28825 | -70.48399 | 11362 ft | 251 kts | 352° |
| 2026-04-23 23:36 | 42.30574 | -70.48427 | 10771 ft | 251 kts | 352° |
| 2026-04-23 23:37 | 42.32320 | -70.48453 | 10191 ft | 252 kts | 352° |
| 2026-04-23 23:37 | 42.34077 | -70.48480 | 9635 ft | 253 kts | 353° |
| 2026-04-23 23:37 | 42.35837 | -70.48504 | 9022 ft | 254 kts | 353° |
| 2026-04-23 23:37 | 42.37606 | -70.48530 | 8421 ft | 254 kts | 354° |
| 2026-04-23 23:38 | 42.39378 | -70.48555 | 7837 ft | 252 kts | 354° |
| 2026-04-23 23:38 | 42.41093 | -70.48575 | 7266 ft | 242 kts | 354° |
| 2026-04-23 23:38 | 42.42752 | -70.48596 | 6710 ft | 235 kts | 354° |
| 2026-04-23 23:38 | 42.44364 | -70.48618 | 6151 ft | 230 kts | 354° |
| 2026-04-23 23:39 | 42.45948 | -70.48641 | 5592 ft | 226 kts | 355° |
| 2026-04-23 23:39 | 42.47505 | -70.48663 | 5038 ft | 222 kts | 355° |
| 2026-04-23 23:39 | 42.49042 | -70.48685 | 4487 ft | 219 kts | 355° |
| 2026-04-23 23:39 | 42.50562 | -70.48707 | 3934 ft | 217 kts | 355° |
| 2026-04-23 23:40 | 42.52068 | -70.48729 | 3393 ft | 216 kts | 356° |
| 2026-04-23 23:40 | 42.53554 | -70.48750 | 3037 ft | 207 kts | 356° |
| 2026-04-23 23:40 | 42.54921 | -70.48767 | 2974 ft | 197 kts | 356° |
| 2026-04-23 23:40 | 42.56341 | -70.48791 | 2986 ft | 205 kts | 356° |
| 2026-04-23 23:41 | 42.57764 | -70.48814 | 2993 ft | 210 kts | 357° |
| 2026-04-23 23:41 | 42.59241 | -70.48837 | 2992 ft | 214 kts | 357° |
| 2026-04-23 23:41 | 42.60730 | -70.48710 | 2983 ft | 219 kts | 13° |
| 2026-04-23 23:41 | 42.61976 | -70.47487 | 2988 ft | 231 kts | 51° |
| 2026-04-23 23:42 | 42.62435 | -70.45370 | 2991 ft | 243 kts | 88° |
| 2026-04-23 23:42 | 42.62441 | -70.43093 | 2991 ft | 239 kts | 72° |
| 2026-04-23 23:42 | 42.63052 | -70.41024 | 2991 ft | 234 kts | 52° |
| 2026-04-23 23:42 | 42.64034 | -70.39291 | 2985 ft | 236 kts | 58° |
| 2026-04-23 23:43 | 42.64392 | -70.37088 | 2996 ft | 244 kts | 83° |
| 2026-04-23 23:43 | 42.64410 | -70.34785 | 2992 ft | 245 kts | 86° |
| 2026-04-23 23:43 | 42.64408 | -70.32469 | 2993 ft | 246 kts | 90° |
| 2026-04-23 23:43 | 42.64200 | -70.30151 | 2996 ft | 248 kts | 94° |
| 2026-04-23 23:44 | 42.64036 | -70.27827 | 2993 ft | 247 kts | 89° |
| 2026-04-23 23:44 | 42.64007 | -70.25503 | 2993 ft | 246 kts | 85° |
| 2026-04-23 23:44 | 42.64070 | -70.23232 | 2986 ft | 229 kts | 82° |
| 2026-04-23 23:44 | 42.64181 | -70.21101 | 2991 ft | 226 kts | 81° |
| 2026-04-23 23:45 | 42.64273 | -70.19693 | 3005 ft | 223 kts | 79° |
| 2026-04-23 23:45 | 42.64423 | -70.17642 | 2995 ft | 216 kts | 79° |
| 2026-04-23 23:45 | 42.64642 | -70.14929 | 2993 ft | 216 kts | 78° |
| 2026-04-23 23:45 | 42.64756 | -70.13586 | 2993 ft | 216 kts | 78° |
| 2026-04-23 23:46 | 42.64931 | -70.11554 | 2993 ft | 216 kts | 78° |
| 2026-04-23 23:46 | 42.65108 | -70.09526 | 2995 ft | 217 kts | 78° |
| 2026-04-23 23:46 | 42.65287 | -70.07494 | 2994 ft | 217 kts | 78° |
| 2026-04-23 23:46 | 42.65465 | -70.05464 | 2646 ft | 213 kts | 78° |
| 2026-04-23 23:47 | 42.65637 | -70.03488 | 2165 ft | 207 kts | 78° |
| 2026-04-23 23:47 | 42.65802 | -70.01585 | 1677 ft | 200 kts | 78° |
| 2026-04-23 23:47 | 42.65964 | -69.99738 | 1182 ft | 194 kts | 79° |
| 2026-04-23 23:47 | 42.66115 | -69.97995 | 996 ft | 179 kts | 79° |
| 2026-04-23 23:48 | 42.66265 | -69.96322 | 978 ft | 178 kts | 79° |
| 2026-04-23 23:48 | 42.66427 | -69.94650 | 990 ft | 178 kts | 79° |
| 2026-04-23 23:48 | 42.66571 | -69.92979 | 994 ft | 178 kts | 80° |
| 2026-04-23 23:48 | 42.66709 | -69.91309 | 991 ft | 178 kts | 80° |
| 2026-04-23 23:49 | 42.66970 | -69.87968 | 991 ft | 178 kts | 81° |
| 2026-04-23 23:49 | 42.67100 | -69.86295 | 998 ft | 178 kts | 80° |
| 2026-04-23 23:49 | 42.67236 | -69.84623 | 991 ft | 179 kts | 80° |
| 2026-04-23 23:50 | 42.67374 | -69.82942 | 991 ft | 179 kts | 79° |
| 2026-04-23 23:50 | 42.67521 | -69.81261 | 994 ft | 179 kts | 80° |
| 2026-04-23 23:50 | 42.67673 | -69.79581 | 990 ft | 179 kts | 78° |
| 2026-04-23 23:50 | 42.67829 | -69.77912 | 989 ft | 178 kts | 79° |
| 2026-04-23 23:51 | 42.67984 | -69.76237 | 990 ft | 179 kts | 79° |
| 2026-04-23 23:51 | 42.68165 | -69.74571 | 1019 ft | 175 kts | 65° |
| 2026-04-23 23:51 | 42.69021 | -69.73556 | 1102 ft | 168 kts | 8° |
| 2026-04-23 23:51 | 42.70076 | -69.74087 | 1036 ft | 173 kts | 314° |
| 2026-04-23 23:52 | 42.70659 | -69.75527 | 1031 ft | 174 kts | 304° |
| 2026-04-23 23:52 | 42.71274 | -69.76948 | 984 ft | 175 kts | 304° |
| 2026-04-23 23:52 | 42.71908 | -69.78356 | 920 ft | 174 kts | 306° |
| 2026-04-23 23:52 | 42.72504 | -69.79803 | 862 ft | 176 kts | 295° |
| 2026-04-23 23:53 | 42.72912 | -69.81378 | 915 ft | 177 kts | 289° |
| 2026-04-23 23:53 | 42.73117 | -69.83019 | 926 ft | 180 kts | 277° |
| 2026-04-23 23:53 | 42.73171 | -69.84718 | 923 ft | 181 kts | 275° |
| 2026-04-23 23:53 | 42.73048 | -69.86442 | 908 ft | 182 kts | 259° |
| 2026-04-23 23:54 | 42.72591 | -69.88044 | 948 ft | 187 kts | 244° |
| 2026-04-23 23:54 | 42.71874 | -69.89525 | 951 ft | 188 kts | 233° |
| 2026-04-23 23:54 | 42.70965 | -69.90806 | 904 ft | 189 kts | 221° |
| 2026-04-23 23:54 | 42.69881 | -69.91794 | 868 ft | 190 kts | 208° |
| 2026-04-23 23:55 | 42.68662 | -69.92460 | 870 ft | 190 kts | 197° |
| 2026-04-23 23:55 | 42.67365 | -69.92804 | 906 ft | 189 kts | 184° |
| 2026-04-23 23:55 | 42.66041 | -69.92787 | 1008 ft | 192 kts | 176° |
| 2026-04-23 23:55 | 42.64707 | -69.92629 | 1013 ft | 192 kts | 172° |
| 2026-04-23 23:56 | 42.63386 | -69.92371 | 1034 ft | 192 kts | 164° |
| 2026-04-23 23:56 | 42.62421 | -69.91259 | 944 ft | 184 kts | 121° |
| 2026-04-23 23:56 | 42.61410 | -69.90215 | 930 ft | 189 kts | 165° |
| 2026-04-23 23:56 | 42.60208 | -69.90674 | 923 ft | 187 kts | 235° |
| 2026-04-23 23:57 | 42.60147 | -69.92280 | 933 ft | 178 kts | 302° |
| 2026-04-23 23:57 | 42.60759 | -69.93729 | 954 ft | 178 kts | 302° |
| 2026-04-23 23:57 | 42.61385 | -69.95172 | 958 ft | 177 kts | 308° |
| 2026-04-23 23:57 | 42.62350 | -69.96052 | 984 ft | 171 kts | 358° |
| 2026-04-23 23:58 | 42.63389 | -69.95400 | 1077 ft | 173 kts | 49° |
| 2026-04-23 23:58 | 42.63969 | -69.93957 | 1052 ft | 174 kts | 61° |
| 2026-04-23 23:58 | 42.64488 | -69.92472 | 1024 ft | 175 kts | 62° |
| 2026-04-23 23:58 | 42.64954 | -69.90939 | 955 ft | 176 kts | 66° |
| 2026-04-23 23:59 | 42.65393 | -69.89383 | 934 ft | 176 kts | 66° |